createdAt,value
2022-09-23T00:01:23.255Z,6.65
2022-09-23T00:03:51.134Z,6.60
2022-09-23T00:06:24.281Z,6.63
2022-09-23T00:14:23.867Z,6.53
2022-09-23T00:16:53.666Z,6.52
2022-09-23T00:19:21.893Z,6.51
2022-09-23T00:21:49.653Z,6.49
2022-09-23T00:24:17.590Z,6.47
2022-09-23T00:26:45.419Z,6.46
2022-09-23T00:29:13.301Z,6.44
2022-09-23T00:31:41.065Z,6.40
2022-09-23T00:34:11.603Z,6.40
2022-09-23T00:36:40.569Z,6.38
2022-09-23T00:39:08.300Z,6.39
2022-09-23T00:41:36.609Z,6.35
2022-09-23T00:44:42.229Z,6.32
2022-09-23T00:47:35.603Z,6.31
2022-09-23T00:50:25.005Z,6.31
2022-09-23T00:52:57.030Z,6.27
2022-09-23T00:55:33.281Z,6.28
2022-09-23T00:58:06.189Z,6.32
2022-09-23T01:00:35.353Z,6.31
2022-09-23T01:03:05.294Z,6.35
2022-09-23T01:05:34.543Z,6.33
2022-09-23T01:08:05.120Z,6.27
2022-09-23T01:11:17.949Z,6.32
2022-09-23T01:14:08.471Z,6.35
2022-09-23T01:17:02.222Z,6.37
2022-09-23T01:20:03.750Z,6.36
2022-09-23T01:23:00.649Z,6.36
2022-09-23T01:25:52.231Z,6.42
2022-09-23T01:28:39.273Z,6.46
2022-09-23T01:31:29.253Z,6.48
2022-09-23T01:34:19.144Z,6.50
2022-09-23T01:36:55.858Z,6.46
2022-09-23T01:39:39.457Z,6.42
2022-09-23T01:42:23.251Z,6.41
2022-09-23T01:45:01.858Z,6.34
2022-09-23T01:47:40.168Z,6.29
2022-09-23T01:50:33.743Z,6.28
2022-09-23T01:53:14.773Z,6.25
2022-09-23T01:55:48.814Z,6.25
2022-09-23T01:58:24.798Z,6.28
2022-09-23T02:01:01.507Z,6.28
2022-09-23T02:03:34.330Z,6.29
2022-09-23T02:06:11.639Z,6.28
2022-09-23T02:09:03.598Z,6.29
2022-09-23T02:11:36.593Z,6.29
2022-09-23T02:14:17.651Z,6.36
2022-09-23T02:16:48.860Z,6.34
2022-09-23T02:19:35.848Z,6.27
2022-09-23T02:22:09.003Z,6.20
2022-09-23T02:24:39.297Z,6.18
2022-09-23T02:27:12.799Z,6.16
2022-09-23T02:29:54.233Z,6.20
2022-09-23T02:32:34.139Z,6.25
2022-09-23T02:35:24.683Z,6.27
2022-09-23T02:38:26.251Z,6.32
2022-09-23T02:41:26.633Z,6.35
2022-09-23T02:44:00.099Z,6.39
2022-09-23T02:46:30.279Z,6.39
2022-09-23T02:49:27.094Z,6.41
2022-09-23T02:51:55.067Z,6.42
2022-09-23T02:54:27.707Z,6.37
2022-09-23T02:56:55.689Z,6.33
2022-09-23T02:59:24.647Z,6.31
2022-09-23T03:02:22.124Z,6.27
2022-09-23T03:04:52.553Z,6.18
2022-09-23T03:07:51.382Z,6.19
2022-09-23T03:10:26.222Z,6.19
2022-09-23T03:13:31.957Z,6.17
2022-09-23T03:16:11.577Z,6.15
2022-09-23T03:18:58.277Z,6.14
2022-09-23T03:21:32.537Z,6.11
2022-09-23T03:24:05.053Z,6.11
2022-09-23T03:26:36.621Z,6.09
2022-09-23T03:29:06.897Z,6.08
2022-09-23T03:31:35.709Z,6.06
2022-09-23T03:34:09.117Z,6.08
2022-09-23T03:36:52.964Z,6.06
2022-09-23T03:39:44.740Z,6.02
2022-09-23T03:42:26.606Z,6.06
2022-09-23T03:44:57.502Z,6.04
2022-09-23T03:47:27.738Z,6.01
2022-09-23T03:49:56.997Z,6.02
2022-09-23T03:52:26.006Z,6.11
2022-09-23T03:54:54.006Z,6.19
2022-09-23T03:57:22.941Z,6.31
2022-09-23T03:59:51.340Z,6.38
2022-09-23T04:02:20.959Z,6.42
2022-09-23T04:04:48.936Z,6.46
2022-09-23T04:07:16.988Z,6.50
2022-09-23T04:09:45.161Z,6.51
2022-09-23T04:12:15.420Z,6.58
2022-09-23T04:14:43.736Z,6.61
2022-09-23T04:17:12.506Z,6.66
2022-09-23T04:19:40.998Z,6.66
2022-09-23T04:22:09.437Z,6.67
2022-09-23T04:24:37.546Z,6.69
2022-09-23T04:27:05.487Z,6.68
2022-09-23T04:29:33.361Z,6.64
2022-09-23T04:32:01.166Z,6.59
2022-09-23T04:34:29.001Z,6.55
2022-09-23T04:36:56.697Z,6.53
2022-09-23T04:39:24.496Z,6.51
2022-09-23T04:41:52.611Z,6.54
2022-09-23T04:44:21.472Z,6.59
2022-09-23T04:46:49.603Z,6.61
2022-09-23T04:49:17.919Z,6.70
2022-09-23T04:51:45.798Z,6.71
2022-09-23T04:54:15.216Z,6.73
2022-09-23T04:56:43.195Z,6.82
2022-09-23T04:59:11.300Z,7.01
2022-09-23T05:01:39.241Z,7.26
2022-09-23T05:04:10.476Z,7.57
2022-09-23T05:06:38.476Z,7.98
2022-09-23T05:09:08.352Z,8.38
2022-09-23T05:11:36.687Z,8.77
2022-09-23T05:14:04.461Z,9.13
2022-09-23T05:16:32.461Z,9.65
2022-09-23T05:19:00.224Z,10.05
2022-09-23T05:21:31.648Z,10.44
2022-09-23T05:24:00.928Z,10.85
2022-09-23T05:26:31.252Z,11.27
2022-09-23T05:29:00.055Z,11.47
2022-09-23T05:31:30.074Z,11.94
2022-09-23T05:34:07.105Z,12.48
2022-09-23T05:36:38.779Z,12.54
2022-09-23T05:39:08.154Z,12.76
2022-09-23T05:41:36.845Z,12.76
2022-09-23T05:44:05.209Z,12.12
2022-09-23T05:46:33.944Z,11.79
2022-09-23T05:49:03.734Z,11.56
2022-09-23T05:51:33.919Z,11.57
2022-09-23T05:54:04.284Z,11.90
2022-09-23T05:56:33.826Z,12.44
2022-09-23T05:59:02.767Z,12.56
2022-09-23T06:01:34.191Z,13.48
2022-09-23T06:04:04.492Z,13.97
2022-09-23T06:06:34.282Z,14.26
2022-09-23T06:09:03.342Z,14.41
2022-09-23T06:11:33.585Z,14.80
2022-09-23T06:14:02.724Z,14.65
2022-09-23T06:16:33.784Z,14.96
2022-09-23T06:19:06.546Z,14.93
2022-09-23T06:21:37.852Z,14.88
2022-09-23T06:24:07.198Z,15.25
2022-09-23T06:26:37.908Z,15.21
2022-09-23T06:29:12.486Z,15.89
2022-09-23T06:31:42.267Z,15.25
2022-09-23T06:34:13.699Z,14.88
2022-09-23T06:36:45.531Z,14.59
2022-09-23T06:39:15.730Z,14.33
2022-09-23T06:41:45.447Z,14.04
2022-09-23T06:44:14.739Z,14.02
2022-09-23T06:46:42.988Z,14.13
2022-09-23T06:49:13.183Z,14.46
2022-09-23T06:51:41.771Z,14.58
2022-09-23T06:54:09.680Z,14.43
2022-09-23T06:56:39.543Z,14.21
2022-09-23T06:59:11.021Z,13.76
2022-09-23T07:01:39.388Z,13.57
2022-09-23T07:04:08.024Z,13.85
2022-09-23T07:06:36.436Z,14.28
2022-09-23T07:09:05.557Z,14.59
2022-09-23T07:11:33.595Z,14.90
2022-09-23T07:14:01.334Z,15.01
2022-09-23T07:16:29.128Z,15.10
2022-09-23T07:18:57.180Z,15.19
2022-09-23T07:21:24.959Z,15.14
2022-09-23T07:23:52.774Z,14.81
2022-09-23T07:26:20.839Z,14.86
2022-09-23T07:28:53.173Z,14.81
2022-09-23T07:31:32.669Z,14.96
2022-09-23T07:34:04.923Z,14.91
2022-09-23T07:36:33.097Z,15.18
2022-09-23T07:39:02.555Z,15.27
2022-09-23T07:41:32.111Z,15.04
2022-09-23T07:44:00.793Z,14.96
2022-09-23T07:46:31.772Z,14.93
2022-09-23T07:49:00.182Z,14.91
2022-09-23T07:51:36.274Z,15.07
2022-09-23T07:54:08.795Z,14.94
2022-09-23T07:56:37.639Z,14.95
2022-09-23T07:59:09.245Z,14.95
2022-09-23T08:01:40.302Z,15.24
2022-09-23T08:04:14.144Z,15.31
2022-09-23T08:06:47.054Z,15.64
2022-09-23T08:09:16.468Z,15.59
2022-09-23T08:11:44.332Z,15.55
2022-09-23T08:14:14.118Z,15.18
2022-09-23T08:16:42.458Z,15.53
2022-09-23T08:19:10.272Z,15.58
2022-09-23T08:21:39.610Z,16.01
2022-09-23T08:24:13.755Z,15.37
2022-09-23T08:26:41.653Z,15.47
2022-09-23T08:29:12.530Z,15.57
2022-09-23T08:31:41.101Z,15.45
2022-09-23T08:34:09.256Z,15.54
2022-09-23T08:36:37.203Z,15.70
2022-09-23T08:39:06.426Z,15.79
2022-09-23T08:41:43.973Z,15.89
2022-09-23T08:44:17.917Z,15.30
2022-09-23T08:46:51.323Z,14.73
2022-09-23T08:49:32.358Z,14.19
2022-09-23T08:52:07.102Z,13.57
2022-09-23T08:54:34.899Z,13.37
2022-09-23T08:57:05.614Z,13.22
2022-09-23T08:59:44.377Z,13.18
2022-09-23T09:02:23.846Z,13.18
2022-09-23T09:04:56.753Z,13.01
2022-09-23T09:07:37.002Z,13.01
2022-09-23T09:10:18.392Z,12.84
2022-09-23T09:12:55.557Z,12.93
2022-09-23T09:15:29.135Z,12.82
2022-09-23T09:18:10.472Z,12.81
2022-09-23T09:20:49.197Z,13.23
2022-09-23T09:23:31.334Z,13.45
2022-09-23T09:26:01.854Z,13.65
2022-09-23T09:28:48.763Z,13.69
2022-09-23T09:31:22.728Z,13.83
2022-09-23T09:34:26.607Z,13.82
2022-09-23T09:37:06.744Z,13.69
2022-09-23T09:39:37.093Z,13.81
2022-09-23T09:42:06.693Z,13.97
2022-09-23T09:44:59.455Z,14.04
2022-09-23T09:47:51.895Z,14.10
2022-09-23T09:50:50.437Z,14.10
2022-09-23T09:53:32.412Z,14.13
2022-09-23T09:56:07.352Z,14.22
2022-09-23T09:58:46.250Z,14.34
2022-09-23T10:01:43.520Z,14.42
2022-09-23T10:04:25.105Z,14.66
2022-09-23T10:07:13.068Z,14.75
2022-09-23T10:09:48.707Z,14.79
2022-09-23T10:12:22.550Z,14.69
2022-09-23T10:14:56.152Z,14.97
2022-09-23T10:17:35.835Z,15.03
2022-09-23T10:20:08.558Z,15.05
2022-09-23T10:22:39.960Z,14.89
2022-09-23T10:25:22.545Z,14.86
2022-09-23T10:27:50.610Z,15.03
2022-09-23T10:30:24.819Z,15.27
2022-09-23T10:32:55.261Z,15.86
2022-09-23T10:35:25.128Z,16.34
2022-09-23T10:37:57.773Z,16.66
2022-09-23T10:40:58.988Z,16.83
2022-09-23T10:44:15.377Z,16.84
2022-09-23T10:46:49.428Z,17.42
2022-09-23T10:49:44.059Z,17.43
2022-09-23T10:52:27.600Z,17.94
2022-09-23T10:55:29.808Z,17.54
2022-09-23T10:58:23.949Z,16.96
2022-09-23T11:00:54.547Z,16.81
2022-09-23T11:03:32.404Z,16.86
2022-09-23T11:06:21.734Z,16.47
2022-09-23T11:08:59.514Z,16.25
2022-09-23T11:11:58.854Z,16.49
2022-09-23T11:14:32.506Z,16.53
2022-09-23T11:17:16.691Z,16.46
2022-09-23T11:20:12.140Z,16.67
2022-09-23T11:23:21.309Z,16.69
2022-09-23T11:26:07.137Z,16.87
2022-09-23T11:28:58.161Z,16.82
2022-09-23T11:31:38.441Z,16.63
2022-09-23T11:34:42.972Z,16.62
2022-09-23T11:37:43.470Z,16.82
2022-09-23T11:40:32.157Z,17.04
2022-09-23T11:43:15.806Z,17.07
2022-09-23T11:45:55.279Z,17.11
2022-09-23T11:48:33.836Z,16.82
2022-09-23T11:51:15.466Z,16.60
2022-09-23T11:53:47.777Z,16.49
2022-09-23T11:56:49.124Z,16.30
2022-09-23T11:59:41.229Z,16.40
2022-09-23T12:02:21.114Z,16.40
2022-09-23T12:05:01.486Z,16.27
2022-09-23T12:07:43.708Z,16.32
2022-09-23T12:10:12.583Z,16.40
2022-09-23T12:12:49.690Z,16.44
2022-09-23T12:15:29.170Z,16.29
2022-09-23T12:18:23.229Z,16.03
2022-09-23T12:21:03.429Z,16.02
2022-09-23T12:24:06.520Z,15.82
2022-09-23T12:26:35.650Z,16.11
2022-09-23T12:29:05.865Z,16.55
2022-09-23T12:31:41.195Z,17.03
2022-09-23T12:34:42.261Z,17.39
2022-09-23T12:37:10.113Z,17.17
2022-09-23T12:39:39.191Z,17.27
2022-09-23T12:42:15.833Z,17.37
2022-09-23T12:44:47.543Z,17.36
2022-09-23T12:47:15.333Z,17.39
2022-09-23T12:49:43.912Z,17.29
2022-09-23T12:52:17.650Z,16.97
2022-09-23T12:54:47.972Z,16.91
2022-09-23T12:57:33.794Z,17.05
2022-09-23T13:00:01.615Z,17.15
2022-09-23T13:02:34.593Z,17.48
2022-09-23T13:05:50.425Z,16.76
2022-09-23T13:08:25.225Z,16.83
2022-09-23T13:10:56.776Z,16.74
2022-09-23T13:13:32.616Z,16.87
2022-09-23T13:16:30.781Z,16.60
2022-09-23T13:19:07.525Z,16.49
2022-09-23T13:21:47.006Z,16.34
2022-09-23T13:24:25.347Z,16.26
2022-09-23T13:26:55.397Z,16.32
2022-09-23T13:29:58.047Z,16.29
2022-09-23T13:32:31.916Z,16.04
2022-09-23T13:35:03.649Z,16.17
2022-09-23T13:37:48.962Z,15.99
2022-09-23T13:40:26.971Z,16.22
2022-09-23T13:43:09.508Z,16.25
2022-09-23T13:45:41.628Z,16.23
2022-09-23T13:48:15.592Z,16.23
2022-09-23T13:50:50.086Z,16.29
2022-09-23T13:53:25.306Z,16.25
2022-09-23T13:56:06.387Z,16.24
2022-09-23T13:58:36.187Z,16.00
2022-09-23T14:01:08.841Z,16.27
2022-09-23T14:03:39.148Z,16.18
2022-09-23T14:06:16.899Z,16.19
2022-09-23T14:08:48.369Z,15.72
2022-09-23T14:11:22.390Z,15.72
2022-09-23T14:13:55.189Z,15.48
2022-09-23T14:16:26.996Z,15.67
2022-09-23T14:19:00.293Z,15.75
2022-09-23T14:21:39.781Z,15.58
2022-09-23T14:24:16.683Z,15.74
2022-09-23T14:26:48.191Z,15.87
2022-09-23T14:29:20.174Z,15.83
2022-09-23T14:32:00.885Z,15.90
2022-09-23T14:35:01.098Z,15.66
2022-09-23T14:37:51.735Z,15.72
2022-09-23T14:40:28.089Z,15.67
2022-09-23T14:42:55.854Z,15.76
2022-09-23T14:45:26.728Z,15.74
2022-09-23T14:48:00.324Z,15.73
2022-09-23T14:50:50.645Z,15.72
2022-09-23T14:53:24.565Z,15.72
2022-09-23T14:55:53.525Z,15.64
2022-09-23T14:58:24.238Z,15.63
2022-09-23T15:01:02.676Z,15.34
2022-09-23T15:03:30.792Z,15.29
2022-09-23T15:06:08.471Z,15.05
2022-09-23T15:08:37.178Z,14.89
2022-09-23T15:11:08.163Z,14.83
2022-09-23T15:13:42.088Z,15.00
2022-09-23T15:16:12.209Z,15.01
2022-09-23T15:18:43.788Z,15.10
2022-09-23T15:21:19.557Z,14.97
2022-09-23T15:23:56.451Z,14.81
2022-09-23T15:26:47.377Z,14.88
2022-09-23T15:29:15.193Z,14.80
2022-09-23T15:31:43.058Z,14.78
2022-09-23T15:34:11.949Z,14.68
2022-09-23T15:36:40.171Z,14.61
2022-09-23T15:39:11.209Z,14.51
2022-09-23T15:41:39.199Z,14.37
2022-09-23T15:44:18.950Z,14.20
2022-09-23T15:46:50.164Z,14.06
2022-09-23T15:49:35.222Z,14.00
2022-09-23T15:52:04.992Z,13.92
2022-09-23T15:54:33.961Z,13.91
2022-09-23T15:57:02.301Z,13.87
2022-09-23T15:59:31.202Z,13.79
2022-09-23T16:02:06.049Z,13.76
2022-09-23T16:04:34.391Z,13.80
2022-09-23T16:07:04.782Z,13.66
2022-09-23T16:09:40.692Z,13.49
2022-09-23T16:12:12.143Z,13.46
2022-09-23T16:14:39.893Z,13.29
2022-09-23T16:17:09.942Z,13.22
2022-09-23T16:19:37.722Z,13.19
2022-09-23T16:22:05.692Z,13.14
2022-09-23T16:24:33.532Z,13.07
2022-09-23T16:27:04.961Z,12.89
2022-09-23T16:29:32.791Z,12.85
2022-09-23T16:32:01.244Z,12.84
2022-09-23T16:34:29.828Z,12.74
2022-09-23T16:36:57.514Z,12.68
2022-09-23T16:39:25.326Z,12.62
2022-09-23T16:41:53.005Z,12.54
2022-09-23T16:44:21.392Z,12.47
2022-09-23T16:46:49.353Z,12.38
2022-09-23T16:49:18.223Z,12.34
2022-09-23T16:51:46.004Z,12.30
2022-09-23T16:54:13.833Z,12.26
2022-09-23T16:56:46.593Z,12.25
2022-09-23T16:59:15.556Z,12.21
2022-09-23T17:02:02.574Z,12.10
2022-09-23T17:04:30.397Z,12.04
2022-09-23T17:06:58.524Z,12.00
2022-09-23T17:09:30.454Z,11.92
2022-09-23T17:12:09.584Z,11.99
2022-09-23T17:14:37.393Z,11.92
2022-09-23T17:17:05.223Z,11.93
2022-09-23T17:19:34.284Z,11.87
2022-09-23T17:22:01.944Z,11.83
2022-09-23T17:24:29.744Z,11.73
2022-09-23T17:26:57.364Z,11.73
2022-09-23T17:29:27.089Z,11.70
2022-09-23T17:31:54.920Z,11.66
2022-09-23T17:34:24.195Z,11.60
2022-09-23T17:36:51.973Z,11.54
2022-09-23T17:39:19.683Z,11.48
2022-09-23T17:41:47.406Z,11.44
2022-09-23T17:44:16.363Z,11.38
2022-09-23T17:46:44.137Z,11.36
2022-09-23T17:49:12.352Z,11.30
2022-09-23T17:51:40.113Z,11.28
2022-09-23T17:54:07.984Z,11.19
2022-09-23T17:56:35.814Z,11.17
2022-09-23T17:59:03.766Z,11.12
2022-09-23T18:01:31.494Z,11.09
2022-09-23T18:04:01.483Z,11.02
2022-09-23T18:06:31.944Z,10.99
2022-09-23T18:09:04.047Z,10.96
2022-09-23T18:11:35.054Z,10.92
2022-09-23T18:14:23.637Z,10.83
2022-09-23T18:16:53.815Z,10.78
2022-09-23T18:19:24.768Z,10.74
2022-09-23T18:21:56.256Z,10.73
2022-09-23T18:24:33.148Z,10.71
2022-09-23T18:27:01.829Z,10.70
2022-09-23T18:29:29.633Z,10.64
2022-09-23T18:31:59.066Z,10.60
2022-09-23T18:34:26.913Z,10.53
2022-09-23T18:36:56.326Z,10.54
2022-09-23T18:39:23.996Z,10.50
2022-09-23T18:41:51.853Z,10.46
2022-09-23T18:44:20.233Z,10.45
2022-09-23T18:46:48.064Z,10.44
2022-09-23T18:49:34.343Z,10.41
2022-09-23T18:52:02.472Z,10.38
2022-09-23T18:54:30.512Z,10.37
2022-09-23T18:56:59.441Z,10.33
2022-09-23T18:59:29.925Z,10.29
2022-09-23T19:01:57.810Z,10.30
2022-09-23T19:04:27.565Z,10.28
2022-09-23T19:06:56.762Z,10.32
2022-09-23T19:09:24.904Z,10.26
2022-09-23T19:11:53.034Z,10.28
2022-09-23T19:14:20.894Z,10.25
2022-09-23T19:16:51.672Z,10.27
2022-09-23T19:19:19.413Z,10.28
2022-09-23T19:21:47.273Z,10.28
2022-09-23T19:24:20.043Z,10.29
2022-09-23T19:26:48.726Z,10.31
2022-09-23T19:29:19.766Z,10.28
2022-09-23T19:31:48.640Z,10.33
2022-09-23T19:34:19.173Z,10.34
2022-09-23T19:36:47.932Z,10.33
2022-09-23T19:39:21.483Z,10.33
2022-09-23T19:41:50.192Z,10.31
2022-09-23T19:44:20.127Z,10.36
2022-09-23T19:46:55.087Z,10.34
2022-09-23T19:49:25.011Z,10.36
2022-09-23T19:51:56.243Z,10.32
2022-09-23T19:54:27.104Z,10.32
2022-09-23T19:56:55.466Z,10.31
2022-09-23T19:59:23.182Z,10.27
2022-09-23T20:01:51.022Z,10.23
2022-09-23T20:04:18.793Z,10.18
2022-09-23T20:06:48.201Z,10.15
2022-09-23T20:09:15.992Z,10.08
2022-09-23T20:11:44.371Z,10.06
2022-09-23T20:14:13.244Z,10.01
2022-09-23T20:16:41.005Z,9.97
2022-09-23T20:19:10.093Z,9.90
2022-09-23T20:21:38.061Z,9.88
2022-09-23T20:24:07.123Z,9.91
2022-09-23T20:26:53.623Z,9.91
2022-09-23T20:29:21.352Z,9.89
2022-09-23T20:31:49.288Z,9.90
2022-09-23T20:34:17.052Z,9.88
2022-09-23T20:36:44.811Z,9.89
2022-09-23T20:39:13.073Z,9.92
2022-09-23T20:41:40.907Z,9.88
2022-09-23T20:44:14.302Z,9.89
2022-09-23T20:46:48.589Z,9.89
2022-09-23T20:49:17.817Z,9.91
2022-09-23T20:51:48.065Z,9.84
2022-09-23T20:54:19.261Z,9.82
2022-09-23T20:56:47.646Z,9.80
2022-09-23T20:59:17.975Z,9.82
2022-09-23T21:01:47.807Z,9.84
2022-09-23T21:04:15.819Z,9.87
2022-09-23T21:06:43.540Z,9.89
2022-09-23T21:09:11.358Z,9.86
2022-09-23T21:11:39.091Z,9.84
2022-09-23T21:14:07.048Z,9.85
2022-09-23T21:16:35.186Z,9.84
2022-09-23T21:19:03.938Z,9.85
2022-09-23T21:21:31.651Z,9.90
2022-09-23T21:24:17.290Z,9.90
2022-09-23T21:26:47.969Z,9.90
2022-09-23T21:29:15.750Z,9.92
2022-09-23T21:31:43.583Z,9.88
2022-09-23T21:34:11.740Z,9.89
2022-09-23T21:36:44.383Z,9.89
2022-09-23T21:39:12.725Z,9.90
2022-09-23T21:41:40.663Z,9.90
2022-09-23T21:44:08.743Z,9.96
2022-09-23T21:46:37.042Z,9.95
2022-09-23T21:49:05.521Z,10.01
2022-09-23T21:51:37.810Z,10.09
2022-09-23T21:54:06.614Z,10.09
2022-09-23T21:56:36.630Z,10.10
2022-09-23T21:59:05.341Z,10.17
2022-09-23T22:01:36.459Z,10.19
2022-09-23T22:04:10.504Z,10.23
2022-09-23T22:06:40.619Z,10.23
2022-09-23T22:09:12.938Z,10.28
2022-09-23T22:12:00.301Z,10.31
2022-09-23T22:14:28.499Z,10.38
2022-09-23T22:16:59.339Z,10.40
2022-09-23T22:19:29.069Z,10.40
2022-09-23T22:21:56.778Z,10.46
2022-09-23T22:24:24.669Z,10.52
2022-09-23T22:26:52.698Z,10.56
2022-09-23T22:29:38.988Z,10.62
2022-09-23T22:32:30.170Z,10.65
2022-09-23T22:34:58.324Z,10.64
2022-09-23T22:37:33.000Z,10.61
2022-09-23T22:40:02.662Z,10.63
2022-09-23T22:42:31.148Z,10.67
2022-09-23T22:44:59.098Z,10.68
2022-09-23T22:47:27.389Z,10.64
2022-09-23T22:49:55.639Z,10.71
2022-09-23T22:52:24.742Z,10.68
2022-09-23T22:54:52.928Z,10.74
2022-09-23T22:57:20.688Z,10.67
2022-09-23T22:59:48.554Z,10.65
2022-09-23T23:02:18.709Z,10.72
2022-09-23T23:04:47.821Z,10.72
2022-09-23T23:07:20.538Z,10.73
2022-09-23T23:09:52.369Z,10.77
2022-09-23T23:12:21.071Z,10.76
2022-09-23T23:14:49.929Z,10.69
2022-09-23T23:17:18.892Z,10.69
2022-09-23T23:19:47.680Z,10.70
2022-09-23T23:22:15.449Z,10.65
2022-09-23T23:24:43.403Z,10.63
2022-09-23T23:27:11.111Z,10.68
2022-09-23T23:29:38.838Z,10.64
2022-09-23T23:32:07.817Z,10.65
2022-09-23T23:34:35.518Z,10.65
2022-09-23T23:37:03.316Z,10.65
2022-09-23T23:39:31.027Z,10.66
2022-09-23T23:41:58.913Z,10.66
2022-09-23T23:44:27.622Z,10.75
2022-09-23T23:46:55.570Z,10.72
2022-09-23T23:49:23.287Z,10.72
2022-09-23T23:51:51.051Z,10.71
2022-09-23T23:54:18.819Z,10.69
2022-09-23T23:56:46.728Z,10.76
2022-09-23T23:59:14.467Z,10.74
